Mercini Lady — A8DL4 — position and weather

sailwx.info

Track history (hours):
 
Tides and Currents Weather Stations Pressure Air Temp Water Temp Dewpoint Dewpoint Depression Visibility Wind Speed Wind Dir Waves Ship Positions

Mercini Lady

Last reported at 2015-Jan-11 05:32 UTC. Time now 2015-Mar-03 14:56 UTC.
Position N 01°12' E 103°49'.
Warning: this ship's position is 51 days out of date.

Length 182 m; draft 10.2 m.

Type: Tanker. MMSI: 636012102.

Date/timePositionNaut miles runAvg speedWind from/ knotsBaromVisibWave heightAir tempDewpointWater temp
2015-Jan-11 05:32N 01°12' E 103°49'1 0.5
2015-Jan-11 04:22N 01°12' E 103°48'0 0.0
2015-Jan-11 00:19N 01°12' E 103°48'0 0.0
2015-Jan-10 19:27N 01°12' E 103°48'0 0.0
2015-Jan-10 18:04N 01°12' E 103°48'0 0.0
2015-Jan-10 17:20N 01°12' E 103°48'0 0.0
2015-Jan-10 16:32N 01°12' E 103°48'0 0.0
2015-Jan-10 10:33N 01°12' E 103°48'0 0.0
2015-Jan-10 09:33N 01°12' E 103°48'0 0.0
2015-Jan-10 08:28N 01°12' E 103°48'0 0.0
2015-Jan-10 07:11N 01°12' E 103°48'0 0.0
2015-Jan-10 06:17N 01°12' E 103°48'0 0.0
2015-Jan-10 05:06N 01°12' E 103°48'0 0.0
2015-Jan-10 02:07N 01°12' E 103°48'0 0.0
2015-Jan-10 01:08N 01°12' E 103°48'0 0.0
2015-Jan-09 22:33N 01°12' E 103°48'0 0.0
2015-Jan-09 19:11N 01°12' E 103°48'0 0.0
2015-Jan-09 18:18N 01°12' E 103°48'0 0.0
2015-Jan-09 17:30N 01°12' E 103°48'0 0.0
2015-Jan-09 16:14N 01°12' E 103°48'0 0.3
2015-Jan-09 15:23N 01°12' E 103°48'1 1.3
2015-Jan-09 14:32N 01°13' E 103°49'0 0.1
2015-Jan-09 13:13N 01°13' E 103°49'0 0.0
2015-Jan-09 10:15N 01°13' E 103°49'0 0.0
2015-Jan-09 09:33N 01°13' E 103°49'0 0.0
2015-Jan-09 04:19N 01°13' E 103°49'0 0.0
2015-Jan-08 19:30N 01°13' E 103°49'0 0.1
2015-Jan-08 18:18N 01°13' E 103°49'0 0.1
2015-Jan-08 16:08N 01°13' E 103°49'0 0.1
2015-Jan-08 15:32N 01°13' E 103°49'0 0.1
2015-Jan-08 14:33N 01°13' E 103°49'0 0.1
2015-Jan-08 13:33N 01°13' E 103°49'0 0.1
2015-Jan-08 12:33N 01°13' E 103°49'4 4.0
2015-Jan-08 11:29N 01°14' E 103°53'6 6.2
2015-Jan-08 10:33N 01°16' E 103°59'6 6.2
2015-Jan-08 09:32N 01°16' E 104°05'8 7.5
2015-Jan-08 08:31N 01°18' E 104°12'  
Track history (hours):
 
Tides and Currents Weather Stations Pressure Air Temp Water Temp Dewpoint Dewpoint Depression Visibility Wind Speed Wind Dir Waves Ship Positions

Mercini Lady

Last reported at 2015-Jan-11 05:32 UTC. Time now 2015-Mar-03 14:56 UTC.
Position N 01°12' E 103°49'.
Warning: this ship's position is 51 days out of date.

Length 182 m; draft 10.2 m.

Type: Tanker. MMSI: 636012102.

Date/timePositionNaut miles runAvg speedWind from/ knotsBaromVisibWave heightAir tempDewpointWater temp
2015-Jan-11 05:32N 01°12' E 103°49'1 0.5
2015-Jan-11 04:22N 01°12' E 103°48'0 0.0
2015-Jan-11 00:19N 01°12' E 103°48'0 0.0
2015-Jan-10 19:27N 01°12' E 103°48'0 0.0
2015-Jan-10 18:04N 01°12' E 103°48'0 0.0
2015-Jan-10 17:20N 01°12' E 103°48'0 0.0
2015-Jan-10 16:32N 01°12' E 103°48'0 0.0
2015-Jan-10 10:33N 01°12' E 103°48'0 0.0
2015-Jan-10 09:33N 01°12' E 103°48'0 0.0
2015-Jan-10 08:28N 01°12' E 103°48'0 0.0
2015-Jan-10 07:11N 01°12' E 103°48'0 0.0
2015-Jan-10 06:17N 01°12' E 103°48'0 0.0
2015-Jan-10 05:06N 01°12' E 103°48'0 0.0
2015-Jan-10 02:07N 01°12' E 103°48'0 0.0
2015-Jan-10 01:08N 01°12' E 103°48'0 0.0
2015-Jan-09 22:33N 01°12' E 103°48'0 0.0
2015-Jan-09 19:11N 01°12' E 103°48'0 0.0
2015-Jan-09 18:18N 01°12' E 103°48'0 0.0
2015-Jan-09 17:30N 01°12' E 103°48'0 0.0
2015-Jan-09 16:14N 01°12' E 103°48'0 0.3
2015-Jan-09 15:23N 01°12' E 103°48'1 1.3
2015-Jan-09 14:32N 01°13' E 103°49'0 0.1
2015-Jan-09 13:13N 01°13' E 103°49'0 0.0
2015-Jan-09 10:15N 01°13' E 103°49'0 0.0
2015-Jan-09 09:33N 01°13' E 103°49'0 0.0
2015-Jan-09 04:19N 01°13' E 103°49'0 0.0
2015-Jan-08 19:30N 01°13' E 103°49'0 0.1
2015-Jan-08 18:18N 01°13' E 103°49'0 0.1
2015-Jan-08 16:08N 01°13' E 103°49'0 0.1
2015-Jan-08 15:32N 01°13' E 103°49'0 0.1
2015-Jan-08 14:33N 01°13' E 103°49'0 0.1
2015-Jan-08 13:33N 01°13' E 103°49'0 0.1
2015-Jan-08 12:33N 01°13' E 103°49'4 4.0
2015-Jan-08 11:29N 01°14' E 103°53'6 6.2
2015-Jan-08 10:33N 01°16' E 103°59'6 6.2
2015-Jan-08 09:32N 01°16' E 104°05'8 7.5
2015-Jan-08 08:31N 01°18' E 104°12'  

Dump ship's entire track history